Time;durP1;ratioP1;P1;durP2;ratioP2;P2;SDS_P1;SDS_P2;PMS_P1;PMS_P2;Temp;Humidity;BMP_temperature;BMP_pressure;BME280_temperature;BME280_humidity;BME280_pressure;Samples;Min_cycle;Max_cycle;Signal;HPM_P1;HPM_P2
2022/12/04 00:01:19;;;;;;;48.00;21.23;;;1.20;99.90;;;;;;5011842;28;20073;-57
2022/12/04 00:03:45;;;;;;;47.55;20.27;;;1.10;99.90;;;;;;5011895;28;20383;-56
2022/12/04 00:06:16;;;;;;;50.07;19.87;;;1.10;99.90;;;;;;5011748;28;20026;-56
2022/12/04 00:08:43;;;;;;;44.87;19.77;;;1.10;99.90;;;;;;5011468;28;20065;-57
2022/12/04 00:11:10;;;;;;;48.50;20.07;;;1.10;99.90;;;;;;5010982;28;20433;-57
2022/12/04 00:13:37;;;;;;;48.13;20.40;;;1.10;99.90;;;;;;5024776;23;20132;-45
2022/12/04 00:16:04;;;;;;;52.30;21.10;;;1.10;99.90;;;;;;5010310;28;20080;-45
2022/12/04 00:18:30;;;;;;;44.50;19.30;;;1.10;99.90;;;;;;5011341;28;20030;-43
2022/12/04 00:20:56;;;;;;;47.03;19.30;;;1.10;99.90;;;;;;5011381;28;20140;-50
2022/12/04 00:23:21;;;;;;;48.63;20.60;;;1.10;99.90;;;;;;5011398;28;20037;-50
2022/12/04 00:25:47;;;;;;;46.90;19.37;;;1.10;99.90;;;;;;5011494;28;20026;-50
2022/12/04 00:28:17;;;;;;;49.37;20.87;;;1.10;99.90;;;;;;5011055;28;20037;-51
2022/12/04 00:30:44;;;;;;;54.00;21.73;;;1.20;99.90;;;;;;5011167;28;20176;-47
2022/12/04 00:33:13;;;;;;;50.73;20.63;;;1.20;99.90;;;;;;5011185;28;20034;-50
2022/12/04 00:35:40;;;;;;;48.75;19.60;;;1.20;99.90;;;;;;5011293;28;20064;-49
2022/12/04 00:38:05;;;;;;;45.43;19.57;;;1.20;99.90;;;;;;5011019;28;20120;-48
2022/12/04 00:40:31;;;;;;;49.70;20.47;;;1.20;99.90;;;;;;5010887;28;20081;-46
2022/12/04 00:42:57;;;;;;;49.50;20.83;;;1.20;99.90;;;;;;5011348;28;20040;-47
2022/12/04 00:45:22;;;;;;;52.80;20.77;;;1.20;99.90;;;;;;5011176;28;20034;-51
2022/12/04 00:47:48;;;;;;;50.13;19.77;;;1.20;99.90;;;;;;5010910;28;20391;-49
2022/12/04 00:50:14;;;;;;;50.17;21.23;;;1.20;99.90;;;;;;5010857;28;20053;-50
2022/12/04 00:52:39;;;;;;;47.00;19.30;;;1.20;99.90;;;;;;5011086;28;20483;-46
2022/12/04 00:55:06;;;;;;;47.97;20.13;;;1.20;99.90;;;;;;5011351;28;20032;-46
2022/12/04 00:57:31;;;;;;;48.53;20.60;;;1.20;99.90;;;;;;5011009;28;20450;-50
2022/12/04 00:59:57;;;;;;;50.20;19.83;;;1.20;99.90;;;;;;5009400;28;20038;-50
2022/12/04 01:02:23;;;;;;;50.07;20.60;;;1.20;99.90;;;;;;5010955;28;20037;-48
2022/12/04 01:04:48;;;;;;;48.70;20.20;;;1.20;99.90;;;;;;5010855;28;20105;-49
2022/12/04 01:07:14;;;;;;;43.93;19.10;;;1.30;99.90;;;;;;5010656;28;20387;-47
2022/12/04 01:09:40;;;;;;;51.50;20.33;;;1.30;99.90;;;;;;5010504;28;20066;-49
2022/12/04 01:12:05;;;;;;;47.50;20.10;;;1.30;99.90;;;;;;5010935;28;20034;-49
2022/12/04 01:14:31;;;;;;;47.83;20.17;;;1.30;99.90;;;;;;5010687;28;20026;-50
2022/12/04 01:16:58;;;;;;;49.67;20.33;;;1.40;99.90;;;;;;5010669;28;20088;-48
2022/12/04 01:19:23;;;;;;;49.43;20.97;;;1.40;99.90;;;;;;5010556;28;20030;-48
2022/12/04 01:21:49;;;;;;;48.17;20.73;;;1.30;99.90;;;;;;5013260;28;20240;-52
2022/12/04 01:24:15;;;;;;;48.97;20.60;;;1.30;99.90;;;;;;5014618;28;20061;-50
2022/12/04 01:26:40;;;;;;;50.23;21.80;;;1.30;99.90;;;;;;5014624;28;20030;-49
2022/12/04 01:29:06;;;;;;;47.00;19.37;;;1.30;99.90;;;;;;5014569;28;20405;-48
2022/12/04 01:31:32;;;;;;;48.07;20.50;;;1.30;99.90;;;;;;5014735;28;20054;-46
2022/12/04 01:33:58;;;;;;;48.77;20.77;;;1.20;99.90;;;;;;5014556;28;20502;-46
2022/12/04 01:36:26;;;;;;;47.03;20.53;;;1.30;99.90;;;;;;5014448;28;20057;-45
2022/12/04 01:38:53;;;;;;;47.83;20.10;;;1.30;99.90;;;;;;5013202;28;20034;-47
2022/12/04 01:41:25;;;;;;;49.73;20.27;;;1.30;99.90;;;;;;5014456;28;20030;-50
2022/12/04 01:44:09;;;;;;;45.70;19.70;;;1.20;99.90;;;;;;5014757;28;20092;-47
2022/12/04 01:46:35;;;;;;;47.07;20.37;;;1.30;99.90;;;;;;5014182;28;20121;-46
2022/12/04 01:49:02;;;;;;;44.83;19.87;;;1.20;99.90;;;;;;5014185;28;20125;-46
2022/12/04 01:51:33;;;;;;;49.87;20.63;;;1.30;99.90;;;;;;5014307;28;20022;-50
2022/12/04 01:54:03;;;;;;;49.73;21.30;;;1.30;99.90;;;;;;5014544;28;20080;-49
2022/12/04 01:56:35;;;;;;;52.13;20.83;;;1.30;99.90;;;;;;5014230;28;20033;-46
2022/12/04 01:59:02;;;;;;;45.67;19.30;;;1.30;99.90;;;;;;5014244;28;20221;-43
2022/12/04 02:01:32;;;;;;;47.63;20.30;;;1.30;99.90;;;;;;5014137;28;20160;-44
2022/12/04 02:04:00;;;;;;;45.37;19.43;;;1.30;99.90;;;;;;5014043;28;20041;-44
2022/12/04 02:06:26;;;;;;;44.33;19.57;;;1.30;99.90;;;;;;5013994;28;20104;-44
2022/12/04 02:08:52;;;;;;;45.10;19.17;;;1.30;99.90;;;;;;5014008;28;20487;-44
2022/12/04 02:11:33;;;;;;;45.70;18.83;;;1.30;99.90;;;;;;5014236;28;20029;-44
2022/12/04 02:14:12;;;;;;;45.43;18.70;;;1.30;99.90;;;;;;5013841;28;20506;-44
2022/12/04 02:16:51;;;;;;;46.30;19.48;;;1.30;99.90;;;;;;5013704;28;20603;-45
2022/12/04 02:19:29;;;;;;;46.35;19.77;;;1.30;99.90;;;;;;5013642;28;20478;-44
2022/12/04 02:21:58;;;;;;;45.83;19.17;;;1.20;99.90;;;;;;5013758;28;20033;-45
2022/12/04 02:24:52;;;;;;;46.20;19.45;;;1.30;99.90;;;;;;5013716;28;20037;-45
2022/12/04 02:27:39;;;;;;;46.07;19.50;;;1.20;99.90;;;;;;5013414;28;20034;-45
2022/12/04 02:30:08;;;;;;;44.50;19.20;;;1.20;99.90;;;;;;5013407;28;20522;-47
2022/12/04 02:32:44;;;;;;;47.83;19.35;;;1.30;99.90;;;;;;5012879;28;20029;-45
2022/12/04 02:35:22;;;;;;;44.67;18.60;;;1.20;99.90;;;;;;5013889;28;20463;-45
2022/12/04 02:38:02;;;;;;;44.93;19.77;;;1.20;99.90;;;;;;5013552;28;20052;-45
2022/12/04 02:40:46;;;;;;;47.93;20.43;;;1.20;99.90;;;;;;5013208;28;20088;-45
2022/12/04 02:43:22;;;;;;;43.40;19.73;;;1.20;99.90;;;;;;5013378;28;20040;-46
2022/12/04 02:45:57;;;;;;;43.07;18.90;;;1.30;99.90;;;;;;5013593;28;20064;-46
2022/12/04 02:48:25;;;;;;;45.47;19.17;;;1.30;99.90;;;;;;5013083;28;20042;-45
2022/12/04 02:50:53;;;;;;;41.67;18.07;;;1.30;99.90;;;;;;5013057;28;20547;-45
2022/12/04 02:53:24;;;;;;;45.17;19.43;;;1.30;99.90;;;;;;5013155;28;20034;-46
2022/12/04 02:55:55;;;;;;;42.57;17.63;;;1.20;99.90;;;;;;5013245;28;20022;-46
2022/12/04 02:58:28;;;;;;;44.13;18.20;;;1.30;99.90;;;;;;5012963;28;20562;-47
2022/12/04 03:00:58;;;;;;;45.10;18.53;;;1.30;99.90;;;;;;5013054;28;20033;-47
2022/12/04 03:03:27;;;;;;;45.97;19.17;;;1.30;99.90;;;;;;5013233;28;20036;-46
2022/12/04 03:06:07;;;;;;;42.25;17.95;;;1.20;99.90;;;;;;5013030;28;20038;-46
2022/12/04 03:09:01;;;;;;;44.87;17.77;;;1.20;99.90;;;;;;5012440;28;20041;-47
2022/12/04 03:11:33;;;;;;;45.47;19.30;;;1.20;99.90;;;;;;5013150;28;20117;-47
2022/12/04 03:14:13;;;;;;;48.53;19.70;;;1.20;99.90;;;;;;5012897;28;20037;-46
2022/12/04 03:16:40;;;;;;;42.97;18.43;;;1.10;99.90;;;;;;5013082;28;20241;-49
2022/12/04 03:19:20;;;;;;;44.93;19.70;;;1.10;99.90;;;;;;5012722;28;20056;-46
2022/12/04 03:21:48;;;;;;;;;;;1.10;99.90;;;;;;5013278;28;20033;-48
2022/12/04 03:24:24;;;;;;;41.33;16.63;;;1.10;99.90;;;;;;5012689;28;19911;-53
2022/12/04 03:26:55;;;;;;;43.77;18.40;;;1.10;99.90;;;;;;5012892;28;20078;-47
2022/12/04 03:29:53;;;;;;;42.23;18.77;;;1.10;99.90;;;;;;5012262;28;20049;-46
2022/12/04 03:32:27;;;;;;;43.70;18.50;;;1.10;99.90;;;;;;5012529;28;20168;-48
2022/12/04 03:35:01;;;;;;;47.13;19.87;;;1.00;99.90;;;;;;5012384;28;20037;-45
2022/12/04 03:37:48;;;;;;;43.30;18.63;;;1.00;99.90;;;;;;5012256;28;20041;-45
2022/12/04 03:40:20;;;;;;;46.93;18.87;;;1.00;99.90;;;;;;5012430;28;20119;-45
2022/12/04 03:42:54;;;;;;;47.53;19.37;;;1.00;99.90;;;;;;5012294;28;20046;-50
2022/12/04 03:45:35;;;;;;;47.20;19.73;;;1.00;99.90;;;;;;5012133;28;20038;-45
2022/12/04 03:48:06;;;;;;;46.13;19.20;;;1.00;99.90;;;;;;5011895;28;20123;-45
2022/12/04 03:50:38;;;;;;;45.20;18.37;;;1.00;99.90;;;;;;5012239;28;20034;-48
2022/12/04 03:53:16;;;;;;;43.83;18.77;;;1.00;99.90;;;;;;5012164;28;20032;-48
2022/12/04 03:55:59;;;;;;;41.03;18.20;;;0.90;99.90;;;;;;5012200;28;20061;-46
2022/12/04 03:58:29;;;;;;;42.13;17.30;;;1.00;99.90;;;;;;5011714;28;20037;-47
2022/12/04 04:00:57;;;;;;;45.77;20.03;;;1.00;99.90;;;;;;5011832;28;20037;-51
2022/12/04 04:03:33;;;;;;;45.17;18.30;;;0.90;99.90;;;;;;5011780;28;20034;-51
2022/12/04 04:06:09;;;;;;;41.37;17.67;;;0.90;99.90;;;;;;5011954;28;20034;-51
2022/12/04 04:08:38;;;;;;;40.77;17.00;;;0.90;99.90;;;;;;5011488;28;20149;-51
2022/12/04 04:11:26;;;;;;;44.80;18.87;;;0.90;99.90;;;;;;5011685;28;20471;-51
2022/12/04 04:25:16;;;;;;;40.83;17.20;;;0.70;99.90;;;;;;5011513;28;20540;-51
2022/12/04 04:27:50;;;;;;;44.93;18.67;;;0.70;99.90;;;;;;5011150;28;20264;-50
2022/12/04 04:30:16;;;;;;;40.47;16.87;;;0.70;99.90;;;;;;5011354;28;20030;-50
2022/12/04 04:32:49;;;;;;;41.37;18.03;;;0.70;99.90;;;;;;5011421;28;20403;-45
2022/12/04 04:35:26;;;;;;;45.23;17.27;;;0.70;99.90;;;;;;5011376;28;20030;-46
2022/12/04 04:37:59;;;;;;;39.20;16.73;;;0.70;99.90;;;;;;5011211;28;20108;-49
2022/12/04 04:40:35;;;;;;;43.63;16.67;;;0.70;99.90;;;;;;5010989;28;20509;-47
2022/12/04 04:43:10;;;;;;;39.30;15.63;;;0.60;99.90;;;;;;5011204;28;20117;-46
2022/12/04 04:45:50;;;;;;;39.80;16.63;;;0.60;99.90;;;;;;5010035;28;20076;-50
2022/12/04 04:48:27;;;;;;;42.30;17.13;;;0.70;99.90;;;;;;5010954;28;20514;-48
2022/12/04 04:50:53;;;;;;;41.17;17.63;;;0.60;99.90;;;;;;5010977;28;20034;-48
2022/12/04 04:53:23;;;;;;;36.50;15.57;;;0.60;99.90;;;;;;5011052;28;20467;-48
2022/12/04 04:55:49;;;;;;;40.85;16.90;;;0.60;99.90;;;;;;5010867;28;20108;-47
2022/12/04 04:58:17;;;;;;;40.23;16.93;;;0.60;99.90;;;;;;5010885;28;20441;-45
2022/12/04 05:00:57;;;;;;;38.17;16.60;;;0.60;99.90;;;;;;5010583;28;20045;-44
2022/12/04 05:03:24;;;;;;;38.47;16.40;;;0.60;99.90;;;;;;5010875;28;20049;-45
2022/12/04 05:05:50;;;;;;;37.63;15.97;;;0.60;99.90;;;;;;5011133;28;20399;-45
2022/12/04 05:08:15;;;;;;;39.33;16.80;;;0.60;99.90;;;;;;5010670;28;20030;-45
2022/12/04 05:10:41;;;;;;;39.03;16.40;;;0.60;99.90;;;;;;5010791;28;20044;-47
2022/12/04 05:13:08;;;;;;;40.17;16.67;;;0.60;99.90;;;;;;5010754;28;20030;-47
2022/12/04 05:15:34;;;;;;;34.57;15.07;;;0.60;99.90;;;;;;5011180;28;20034;-49
2022/12/04 05:18:00;;;;;;;32.63;14.73;;;0.60;99.90;;;;;;5010628;28;20391;-46
2022/12/04 05:20:25;;;;;;;37.23;16.90;;;0.70;99.90;;;;;;5010697;28;20057;-51
2022/12/04 05:22:51;;;;;;;36.67;15.43;;;0.70;99.90;;;;;;5011118;28;20330;-50
2022/12/04 05:25:17;;;;;;;36.13;16.37;;;0.70;99.90;;;;;;5010781;28;20026;-51
2022/12/04 05:27:42;;;;;;;32.20;14.57;;;0.70;99.90;;;;;;5010433;28;20042;-51
2022/12/04 05:30:10;;;;;;;29.77;12.97;;;0.70;99.90;;;;;;5010356;28;20030;-48
2022/12/04 05:32:36;;;;;;;38.37;15.90;;;0.80;99.90;;;;;;5010644;28;20053;-51
2022/12/04 05:35:02;;;;;;;33.30;14.97;;;0.80;99.90;;;;;;5010636;28;20030;-51
2022/12/04 05:37:27;;;;;;;34.27;14.57;;;0.80;99.90;;;;;;5010688;28;20105;-45
2022/12/04 05:39:53;;;;;;;31.93;14.63;;;0.80;99.90;;;;;;5010342;28;20120;-46
2022/12/04 05:42:19;;;;;;;33.77;15.13;;;0.80;99.90;;;;;;5010639;28;20034;-50
2022/12/04 05:44:45;;;;;;;34.70;15.80;;;0.80;99.90;;;;;;5010306;28;20134;-51
2022/12/04 05:47:10;;;;;;;34.83;14.77;;;0.70;99.90;;;;;;5010338;28;20411;-53
2022/12/04 05:49:36;;;;;;;37.27;14.70;;;0.70;99.90;;;;;;5010278;28;20040;-46
2022/12/04 05:52:03;;;;;;;35.23;14.70;;;0.80;99.90;;;;;;5010561;28;20062;-51
2022/12/04 05:54:29;;;;;;;34.83;14.97;;;0.80;99.90;;;;;;5010610;28;20450;-51
2022/12/04 05:56:55;;;;;;;31.43;14.67;;;0.80;99.90;;;;;;5010358;28;20037;-47
2022/12/04 05:59:21;;;;;;;29.50;13.90;;;0.80;99.90;;;;;;5010156;28;20467;-47
2022/12/04 06:01:46;;;;;;;32.23;14.13;;;0.80;99.90;;;;;;5010339;28;20029;-46
2022/12/04 06:04:12;;;;;;;32.10;14.10;;;0.80;99.90;;;;;;5010459;28;20030;-50
2022/12/04 06:06:38;;;;;;;32.90;14.47;;;0.80;99.90;;;;;;5010175;28;20030;-46
2022/12/04 06:09:05;;;;;;;34.07;14.60;;;0.80;99.90;;;;;;5012725;28;20219;-50
2022/12/04 06:11:34;;;;;;;33.23;15.03;;;0.80;99.90;;;;;;5013989;28;20038;-51
2022/12/04 06:14:01;;;;;;;33.00;14.40;;;0.80;99.90;;;;;;5013720;28;20030;-47
2022/12/04 06:16:29;;;;;;;32.93;14.70;;;0.80;99.90;;;;;;5014131;28;20100;-50
2022/12/04 06:18:58;;;;;;;35.37;16.03;;;0.90;99.90;;;;;;5013753;28;20022;-48
2022/12/04 06:21:26;;;;;;;32.77;14.57;;;0.90;99.90;;;;;;5014053;28;20083;-50
2022/12/04 06:23:52;;;;;;;30.10;13.60;;;0.90;99.90;;;;;;5013814;28;20071;-48
2022/12/04 06:26:21;;;;;;;30.67;14.10;;;0.90;99.90;;;;;;5013488;28;20041;-51
2022/12/04 06:28:46;;;;;;;30.90;13.97;;;0.90;99.90;;;;;;5013703;28;20026;-46
2022/12/04 06:31:14;;;;;;;30.63;13.07;;;1.00;99.90;;;;;;5013682;28;20506;-50
2022/12/04 06:33:40;;;;;;;29.00;14.10;;;1.00;99.90;;;;;;5013648;28;20030;-48
2022/12/04 06:36:15;;;;;;;32.10;14.70;;;1.00;99.90;;;;;;5013642;28;20068;-49
2022/12/04 06:38:41;;;;;;;31.47;14.40;;;1.10;99.90;;;;;;5013244;28;20053;-51
2022/12/04 06:41:10;;;;;;;29.47;13.03;;;1.10;99.90;;;;;;5013340;28;20025;-46
2022/12/04 06:43:36;;;;;;;29.30;13.27;;;1.10;99.90;;;;;;5013377;28;20022;-47
2022/12/04 06:46:14;;;;;;;27.70;12.60;;;1.00;99.90;;;;;;5013368;28;20453;-51
2022/12/04 06:48:41;;;;;;;26.20;12.07;;;1.00;99.90;;;;;;5012998;28;20034;-47
2022/12/04 06:51:12;;;;;;;28.30;11.70;;;1.10;99.90;;;;;;5013252;28;20117;-52
2022/12/04 06:53:38;;;;;;;27.40;12.93;;;1.10;99.90;;;;;;5013176;28;20041;-48
2022/12/04 06:56:07;;;;;;;28.63;12.97;;;1.10;99.90;;;;;;5013207;28;20380;-47
2022/12/04 06:58:33;;;;;;;27.57;12.80;;;1.10;99.90;;;;;;5012716;28;20076;-50
2022/12/04 07:00:59;;;;;;;28.73;13.27;;;1.10;99.90;;;;;;5013078;28;20394;-51
2022/12/04 07:03:25;;;;;;;29.40;13.23;;;1.10;99.90;;;;;;5013116;28;20037;-50
2022/12/04 07:05:51;;;;;;;28.67;14.20;;;1.10;99.90;;;;;;5013126;28;20034;-45
2022/12/04 07:08:18;;;;;;;28.77;13.47;;;1.10;99.90;;;;;;5012706;28;20045;-48
2022/12/04 07:10:43;;;;;;;31.47;14.30;;;1.10;99.90;;;;;;5012637;28;20482;-50
2022/12/04 07:13:09;;;;;;;28.37;13.57;;;1.00;99.90;;;;;;5011477;28;20061;-51
2022/12/04 07:15:36;;;;;;;27.53;13.60;;;1.00;99.90;;;;;;5012801;28;20041;-51
2022/12/04 07:18:03;;;;;;;29.43;14.07;;;1.00;99.90;;;;;;5013069;28;20084;-48
2022/12/04 07:20:29;;;;;;;24.20;11.47;;;1.00;99.90;;;;;;5012178;28;20038;-53
2022/12/04 07:22:56;;;;;;;28.60;12.40;;;1.00;99.90;;;;;;5012759;28;20037;-51
2022/12/04 07:25:21;;;;;;;29.13;13.63;;;1.10;99.90;;;;;;5012785;28;20044;-48
2022/12/04 07:27:47;;;;;;;26.43;12.87;;;1.10;99.90;;;;;;5012330;28;20037;-51
2022/12/04 07:30:13;;;;;;;26.63;13.27;;;1.00;99.90;;;;;;5012323;28;20501;-51
2022/12/04 07:32:39;;;;;;;29.30;13.83;;;1.00;99.90;;;;;;5012507;28;20510;-51
2022/12/04 07:35:05;;;;;;;26.00;13.00;;;1.10;99.90;;;;;;5012433;28;20022;-50
2022/12/04 07:37:34;;;;;;;29.33;13.93;;;1.00;99.90;;;;;;5012295;28;20160;-51
2022/12/04 07:39:59;;;;;;;25.30;12.35;;;1.00;99.90;;;;;;5012306;28;20041;-51
2022/12/04 07:42:27;;;;;;;28.57;13.57;;;1.10;99.90;;;;;;5012428;28;20030;-49
2022/12/04 07:44:53;;;;;;;28.43;12.77;;;1.10;99.90;;;;;;5012359;28;20430;-49
2022/12/04 07:47:19;;;;;;;23.30;12.27;;;1.10;99.90;;;;;;5012152;28;20038;-52
2022/12/04 07:49:44;;;;;;;29.17;13.63;;;1.00;99.90;;;;;;5011910;28;20026;-47
2022/12/04 07:52:10;;;;;;;26.47;12.97;;;1.00;99.90;;;;;;5012137;28;20037;-52
2022/12/04 07:54:36;;;;;;;25.23;12.90;;;1.00;99.90;;;;;;5012269;28;20102;-50
2022/12/04 07:57:01;;;;;;;27.83;12.97;;;1.00;99.90;;;;;;5012146;28;20026;-46
2022/12/04 07:59:27;;;;;;;25.97;12.80;;;1.00;99.90;;;;;;5011863;28;20108;-46
2022/12/04 08:01:53;;;;;;;25.53;12.70;;;1.00;99.90;;;;;;5012025;28;20038;-46
2022/12/04 08:04:19;;;;;;;25.60;12.30;;;1.00;99.90;;;;;;5011840;28;20054;-49
2022/12/04 08:06:44;;;;;;;25.97;11.93;;;1.00;99.90;;;;;;5011921;28;20084;-49
2022/12/04 08:09:10;;;;;;;24.03;13.10;;;1.00;99.90;;;;;;5011642;28;20128;-49
2022/12/04 08:11:36;;;;;;;25.57;12.77;;;1.00;99.90;;;;;;5011676;28;20055;-53
2022/12/04 08:14:04;;;;;;;24.83;12.30;;;1.00;99.90;;;;;;5011723;28;20474;-48
2022/12/04 08:16:31;;;;;;;22.83;11.87;;;1.10;99.90;;;;;;5011689;28;20037;-47
2022/12/04 08:18:57;;;;;;;26.27;12.37;;;1.00;99.90;;;;;;5011356;28;20478;-46
2022/12/04 08:21:26;;;;;;;22.20;11.80;;;1.10;99.90;;;;;;5011816;28;20041;-45
2022/12/04 08:23:53;;;;;;;24.23;11.65;;;1.10;99.90;;;;;;5011913;28;20105;-45
2022/12/04 08:26:20;;;;;;;21.57;10.83;;;1.20;99.90;;;;;;5011501;28;20083;-46
2022/12/04 08:28:47;;;;;;;23.07;11.70;;;1.20;99.90;;;;;;5011444;28;20026;-45
2022/12/04 08:31:23;;;;;;;22.33;12.03;;;1.20;99.90;;;;;;5010742;28;20033;-51
2022/12/04 08:33:51;;;;;;;20.90;10.90;;;1.30;99.90;;;;;;5011436;28;20052;-49
2022/12/04 08:36:18;;;;;;;23.83;12.33;;;1.20;99.90;;;;;;5011372;28;20487;-50
2022/12/04 08:38:46;;;;;;;22.83;11.23;;;1.20;99.90;;;;;;5011241;28;20037;-50
2022/12/04 08:41:14;;;;;;;21.90;11.63;;;1.20;99.90;;;;;;5011240;28;20037;-48
2022/12/04 08:43:40;;;;;;;20.43;10.20;;;1.30;99.90;;;;;;5011305;28;20030;-50
2022/12/04 08:46:09;;;;;;;18.87;9.80;;;1.20;99.90;;;;;;5011239;28;20037;-49
2022/12/04 08:48:35;;;;;;;19.98;10.95;;;1.20;99.90;;;;;;5011059;28;20037;-52
2022/12/04 08:51:06;;;;;;;22.37;11.87;;;1.20;99.90;;;;;;5011169;28;20034;-52
2022/12/04 08:53:35;;;;;;;22.40;12.10;;;1.30;99.90;;;;;;5011069;28;20029;-51
2022/12/04 08:56:01;;;;;;;20.83;11.07;;;1.20;99.90;;;;;;5011104;28;20105;-51
2022/12/04 08:58:27;;;;;;;25.83;12.20;;;1.30;99.90;;;;;;5010782;28;20459;-51
2022/12/04 09:00:52;;;;;;;23.97;12.17;;;1.30;99.90;;;;;;5010817;28;20044;-53
2022/12/04 09:03:20;;;;;;;25.40;11.53;;;1.30;99.90;;;;;;5011112;28;20030;-52
2022/12/04 09:05:45;;;;;;;23.17;11.60;;;1.30;99.90;;;;;;5011159;28;20096;-50
2022/12/04 09:08:12;;;;;;;25.57;12.13;;;1.30;99.90;;;;;;5010750;28;20283;-51
2022/12/04 09:10:39;;;;;;;22.13;12.37;;;1.30;99.90;;;;;;5010712;28;20022;-50
2022/12/04 09:13:05;;;;;;;23.03;11.93;;;1.30;99.90;;;;;;5011220;28;20545;-47
2022/12/04 09:15:31;;;;;;;23.10;11.00;;;1.30;99.90;;;;;;5011236;28;20545;-52
2022/12/04 09:17:57;;;;;;;22.20;11.20;;;1.40;99.90;;;;;;5010706;28;20482;-48
2022/12/04 09:20:23;;;;;;;23.40;12.00;;;1.30;99.90;;;;;;5010494;28;20509;-47
2022/12/04 09:22:49;;;;;;;22.80;11.20;;;1.40;99.90;;;;;;5010787;28;20108;-51
2022/12/04 09:25:15;;;;;;;22.90;11.90;;;1.40;99.90;;;;;;5010741;28;20036;-51
2022/12/04 09:27:42;;;;;;;21.83;11.33;;;1.40;99.90;;;;;;5010474;28;20096;-52
2022/12/04 09:30:09;;;;;;;21.03;11.17;;;1.50;99.90;;;;;;5010454;28;20022;-48
2022/12/04 09:32:35;;;;;;;24.03;11.67;;;1.40;99.90;;;;;;5010769;28;20375;-51
2022/12/04 09:35:01;;;;;;;21.57;11.67;;;1.40;99.90;;;;;;5010563;28;20034;-48
2022/12/04 09:37:26;;;;;;;22.73;11.37;;;1.40;99.90;;;;;;5010490;28;20163;-48
2022/12/04 09:39:52;;;;;;;25.40;12.10;;;1.40;99.90;;;;;;5010456;28;20057;-46
2022/12/04 09:42:39;;;;;;;24.10;11.40;;;1.40;99.90;;;;;;5011977;28;20064;-46
2022/12/04 09:45:12;;;;;;;25.20;12.73;;;1.50;99.90;;;;;;5014432;28;20057;-47
2022/12/04 09:47:45;;;;;;;24.17;12.53;;;1.50;99.90;;;;;;5014204;28;20398;-46
2022/12/04 09:50:24;;;;;;;23.60;12.40;;;1.60;99.90;;;;;;5014247;28;20112;-47
2022/12/04 09:52:56;;;;;;;23.55;12.38;;;1.60;99.90;;;;;;5014365;28;20026;-49
2022/12/04 09:55:41;;;;;;;27.13;13.70;;;1.50;99.90;;;;;;5014391;28;20459;-46
2022/12/04 09:58:13;;;;;;;27.77;12.47;;;1.60;99.90;;;;;;5014169;28;20030;-46
2022/12/04 10:00:42;;;;;;;24.60;12.63;;;1.60;99.90;;;;;;5014129;28;20026;-47
2022/12/04 10:03:16;;;;;;;;;;;1.60;99.90;;;;;;5014578;28;20112;-47
2022/12/04 10:06:04;;;;;;;24.90;12.03;;;1.70;99.90;;;;;;5014105;28;19963;-47
2022/12/04 10:08:34;;;;;;;25.40;12.20;;;1.70;99.90;;;;;;5013653;28;20037;-50
2022/12/04 10:11:25;;;;;;;23.83;11.17;;;1.70;99.90;;;;;;5014077;28;20030;-45
2022/12/04 10:14:16;;;;;;;27.73;13.60;;;1.70;99.90;;;;;;5013870;28;20034;-45
2022/12/04 10:17:09;;;;;;;26.90;13.70;;;1.70;99.90;;;;;;5013875;28;20068;-46
2022/12/04 10:19:43;;;;;;;26.80;13.07;;;1.60;99.90;;;;;;5013770;28;20383;-47
2022/12/04 10:22:27;;;;;;;26.27;13.07;;;1.70;99.90;;;;;;5013822;28;20118;-45
2022/12/04 10:25:02;;;;;;;27.00;13.63;;;1.70;99.90;;;;;;5013829;28;20145;-45
2022/12/04 10:27:29;;;;;;;28.20;13.43;;;1.60;99.90;;;;;;5013479;28;20038;-50
2022/12/04 10:30:01;;;;;;;26.67;13.30;;;1.70;99.90;;;;;;5013360;28;20044;-50
2022/12/04 10:32:33;;;;;;;23.60;11.80;;;1.80;99.90;;;;;;5013503;28;20132;-50
2022/12/04 10:35:17;;;;;;;25.00;13.40;;;1.80;99.90;;;;;;5013627;28;20054;-47
2022/12/04 10:37:44;;;;;;;23.77;12.27;;;1.80;99.90;;;;;;5013445;28;20045;-49
2022/12/04 10:40:21;;;;;;;25.53;13.30;;;1.80;99.90;;;;;;5013239;28;20087;-51
2022/12/04 10:43:13;;;;;;;26.50;12.73;;;1.80;99.90;;;;;;5013401;28;20279;-51
2022/12/04 10:45:38;;;;;;;25.57;12.33;;;1.80;99.90;;;;;;5013670;28;20038;-45
2022/12/04 10:48:06;;;;;;;27.90;13.07;;;1.80;99.90;;;;;;5013036;28;20026;-52
2022/12/04 10:50:33;;;;;;;23.77;12.47;;;1.80;99.90;;;;;;5013061;28;20036;-47
2022/12/04 10:52:59;;;;;;;25.63;12.83;;;1.80;99.90;;;;;;5013544;28;20045;-49
2022/12/04 10:55:33;;;;;;;28.37;13.33;;;1.80;99.90;;;;;;5012663;28;20030;-48
2022/12/04 10:58:01;;;;;;;27.70;12.90;;;1.80;99.90;;;;;;5013007;28;20026;-53
2022/12/04 11:00:30;;;;;;;25.87;13.03;;;1.80;99.90;;;;;;5013039;28;20038;-48
2022/12/04 11:02:59;;;;;;;28.63;13.55;;;1.80;99.90;;;;;;5013123;28;20057;-51
2022/12/04 11:05:54;;;;;;;27.92;13.32;;;1.80;99.90;;;;;;5012924;28;20489;-47
2022/12/04 11:08:27;;;;;;;26.07;13.30;;;1.90;99.90;;;;;;5012647;28;20502;-46
2022/12/04 11:11:14;;;;;;;25.37;12.93;;;1.80;99.90;;;;;;5012771;28;20022;-49
2022/12/04 11:13:41;;;;;;;26.67;13.33;;;1.90;99.90;;;;;;5013081;28;20061;-52
2022/12/04 11:16:07;;;;;;;28.03;13.50;;;1.90;99.90;;;;;;5012824;28;20054;-48
2022/12/04 11:18:45;;;;;;;26.97;13.63;;;1.80;99.90;;;;;;5012665;28;20040;-48
2022/12/04 11:21:24;;;;;;;26.27;12.60;;;1.80;99.90;;;;;;5012677;28;20038;-47
2022/12/04 11:23:51;;;;;;;27.45;13.63;;;1.90;99.90;;;;;;5012720;28;20483;-50
2022/12/04 11:26:29;;;;;;;29.30;14.57;;;1.90;99.90;;;;;;5012506;28;20510;-50
2022/12/04 11:29:00;;;;;;;24.97;13.07;;;1.80;99.90;;;;;;5012463;28;20053;-49
2022/12/04 11:31:27;;;;;;;29.03;14.13;;;1.80;99.90;;;;;;5012596;28;20061;-50
2022/12/04 11:34:20;;;;;;;27.80;13.90;;;1.80;99.90;;;;;;5012417;28;20390;-51
2022/12/04 11:36:54;;;;;;;29.30;14.10;;;1.90;99.90;;;;;;5012233;28;20038;-51
2022/12/04 11:39:31;;;;;;;28.77;14.23;;;1.80;99.90;;;;;;5012212;28;20479;-47
2022/12/04 11:42:15;;;;;;;28.03;14.40;;;1.80;99.90;;;;;;5012711;28;20087;-51
2022/12/04 11:44:59;;;;;;;30.73;14.47;;;1.90;99.90;;;;;;5012282;28;20558;-51
2022/12/04 11:47:29;;;;;;;31.30;16.30;;;1.90;99.90;;;;;;5011744;28;20030;-50
2022/12/04 11:50:02;;;;;;;32.93;15.33;;;2.00;99.90;;;;;;5012135;28;20068;-50
2022/12/04 11:53:19;;;;;;;30.63;15.43;;;2.00;99.90;;;;;;5012050;28;20502;-50
2022/12/04 11:56:06;;;;;;;32.50;14.77;;;2.00;99.90;;;;;;5009393;28;20025;-49
2022/12/04 11:58:58;;;;;;;31.80;15.57;;;2.00;99.90;;;;;;5011445;28;20050;-46
2022/12/04 12:01:41;;;;;;;32.00;16.30;;;2.00;99.90;;;;;;5012003;28;20037;-51
2022/12/04 12:04:22;;;;;;;33.60;15.23;;;2.00;99.90;;;;;;5011847;28;20114;-49
2022/12/04 12:07:09;;;;;;;34.60;16.47;;;2.00;99.90;;;;;;5010919;28;20356;-51
2022/12/04 12:09:58;;;;;;;29.47;14.63;;;2.00;99.90;;;;;;5011790;28;20053;-48
2022/12/04 12:12:33;;;;;;;31.15;14.80;;;1.90;99.90;;;;;;5011725;28;20034;-48
2022/12/04 12:15:29;;;;;;;29.83;14.70;;;2.00;99.90;;;;;;5023343;23;20068;-48
2022/12/04 12:18:13;;;;;;;32.43;15.70;;;2.00;99.90;;;;;;5011508;28;20122;-49
2022/12/04 12:20:48;;;;;;;31.50;15.33;;;2.00;99.90;;;;;;5011459;28;20033;-51
2022/12/04 12:23:26;;;;;;;28.63;14.53;;;2.00;99.90;;;;;;5011931;28;20475;-52
2022/12/04 12:26:11;;;;;;;34.07;15.67;;;2.10;99.90;;;;;;5011587;28;20178;-52
2022/12/04 12:28:43;;;;;;;32.30;15.03;;;2.10;99.90;;;;;;5011033;28;20029;-51
2022/12/04 12:31:47;;;;;;;31.03;14.93;;;2.00;99.90;;;;;;5011816;28;20022;-50
2022/12/04 12:34:29;;;;;;;35.00;15.37;;;2.10;99.90;;;;;;5011447;28;20178;-52
2022/12/04 12:36:58;;;;;;;31.93;15.00;;;2.20;99.90;;;;;;5011144;28;20040;-50
2022/12/04 12:39:34;;;;;;;32.17;15.35;;;2.20;99.90;;;;;;5011146;28;20092;-53
2022/12/04 12:42:00;;;;;;;31.20;15.27;;;2.20;99.90;;;;;;5011809;28;20038;-53
2022/12/04 12:45:04;;;;;;;30.13;14.70;;;2.30;99.90;;;;;;5010137;28;20399;-50
2022/12/04 12:47:40;;;;;;;30.43;15.10;;;2.30;99.90;;;;;;5014606;28;20056;-47
2022/12/04 12:50:21;;;;;;;30.60;14.80;;;2.30;99.90;;;;;;5011022;28;20038;-53
2022/12/04 12:52:56;;;;;;;29.43;13.90;;;2.30;99.90;;;;;;5011233;28;20069;-49
2022/12/04 12:55:23;;;;;;;27.70;14.07;;;2.30;99.90;;;;;;5011150;28;20025;-52
2022/12/04 12:57:58;;;;;;;32.67;14.20;;;2.30;99.90;;;;;;5009551;28;20491;-51
2022/12/04 13:00:25;;;;;;;33.57;14.93;;;2.30;99.90;;;;;;5010830;28;20029;-50
2022/12/04 13:03:22;;;;;;;31.77;14.70;;;2.30;99.90;;;;;;5011007;28;20406;-48
2022/12/04 13:05:52;;;;;;;29.23;13.70;;;2.40;99.90;;;;;;5010781;28;20030;-49
2022/12/04 13:08:47;;;;;;;29.00;14.43;;;2.40;99.90;;;;;;5011036;28;20488;-48
2022/12/04 13:11:20;;;;;;;29.07;15.20;;;2.40;99.90;;;;;;5010869;28;20025;-47